KPCD/PCD METAR and TAF weather

Enter ICAO airport designator
Station Type Date Time Source
KPCD METAR 2020/07/14 22:35 UTC NOAA

KPCD 142235Z AUTO 11009KT 10SM CLR 32/19 A2996 RMK AO2 T03170186


Station Type Date Time Source
KPCD Decoded METAR 2020/07/14 22:35 UTC NOAA

Station name not available
Jul 14, 2020 - 06:35 PM EDT / 2020.07.14 2235 UTC
Wind: from the ESE (110 degrees) at 10 MPH (9 KT):0
Visibility: 10 mile(s):0
Sky conditions: clear
Temperature: 89.1 F (31.7 C)
Dew Point: 65.5 F (18.6 C)
Relative Humidity: 45%
Pressure (altimeter): 29.96 in. Hg (1014 hPa)
ob: KPCD 142235Z AUTO 11009KT 10SM CLR 32/19 A2996 RMK AO2 T03170186
cycle: 22

Station Type Date Time Source
KPCD TAF UTC NOAA

Error!

Example: see airport list